Ketchikan, Alaska
Current Conditions -  °F | °C
As of 11:53 PM on Friday 21 Nov 2014 (Local Time) from PAKT Reporting Station
Overcast Overcast  
Wind Chill: 39°   Ceiling: 1000
Heat Index: 42°   Visibility: 10mi
Dew Point: 41°   Wind: 5mph
Humidity: 96%   Direction: 170°S
Pressure: 29.34"   Gusts: NA
Location:  55.35°N, 131.69°W
Report Text: PAKT 220853Z AUTO 17004KT 10SM SCT005 OVC010 06/05 A2934 RMK AO2 SLP935 T00560050 400830050 53018 TSNO
Loading
Personal Weather Stations






























Interactive Weather Map New forecast layout! Learn more

10-Day Weather Forecast

Advertisements
Track Severe Weather on mobile